.
Local / Fort Wayne - NE Ind.

U N D E R   C O N S T R U C T I O N

Local Weather
Fort Wayne – NE Indiana

Northern Indiana (IWX) Radar

Latest IWX NEXRAD
Base Reflectivity



Latest IWX NEXRAD
Base Velocity

Indiana-Ohio Visible Satellite

For infrared and water vapor imagery, see Great Lakes - Midwest.

Current Conditions

Recent report from the Fort Wayne International Airport

Apr 26, 2018 - 08:54 AM EDT / 2018.04.26 1254 UTC


The skies are mostly clear. The temperature is 45.0 F (7.2 C) and the dew point is 39.9 F (4.4 C), giving a relative humidity of 82%. The barometric pressure is 29.96 in. Hg (1014 hPa). The wind is from the ESE (110 degrees) at 6 MPH (5 KT), and the visibility is 10 mile(s).

KFWA 261254Z 11005KT 10SM FEW021 07/04 A2996 RMK AO2 SLP147 T00720044

Local Weather — Contents

Local Weather — Links

CoCoRaHS
IN-AL-39
A2 Web Hosting
Creative Commons License
GoDaddy
Look for:

loaded 2018-04-26 09:17:57 • last modified 2017-02-11 13:27:36
Privacy PolicyDisclaimer
• wx.awcolley.com is powered by PmWiki v.2002016 •
• all content (unless otherwise noted) © 2018 A W Colley